createdAt,value
2023-10-06T00:02:20.629Z,102476.84
2023-10-06T00:04:47.192Z,102480.19
2023-10-06T00:07:15.766Z,102474.56
2023-10-06T00:09:44.823Z,102474.78
2023-10-06T00:12:14.339Z,102469.06
2023-10-06T00:14:41.818Z,102464.66
2023-10-06T00:17:12.753Z,102468.38
2023-10-06T00:19:40.366Z,102467.38
2023-10-06T00:22:19.421Z,102470.00
2023-10-06T00:24:56.316Z,102476.13
2023-10-06T00:27:26.017Z,102465.44
2023-10-06T00:29:55.782Z,102466.91
2023-10-06T00:32:23.252Z,102462.44
2023-10-06T00:34:50.694Z,102466.50
2023-10-06T00:37:18.059Z,102473.78
2023-10-06T00:39:45.257Z,102465.38
2023-10-06T00:42:15.880Z,102472.44
2023-10-06T00:44:46.001Z,102468.72
2023-10-06T00:47:14.340Z,102438.56
2023-10-06T00:49:41.855Z,102451.00
2023-10-06T00:52:09.106Z,102452.16
2023-10-06T00:54:35.704Z,102447.66
2023-10-06T00:57:09.792Z,102451.84
2023-10-06T00:59:37.177Z,102448.28
2023-10-06T01:02:10.025Z,102447.94
2023-10-06T01:04:47.084Z,102446.88
2023-10-06T01:07:14.880Z,102432.00
2023-10-06T01:10:00.555Z,102423.38
2023-10-06T01:12:30.606Z,102430.88
2023-10-06T01:15:16.743Z,102425.59
2023-10-06T01:17:43.379Z,102414.94
2023-10-06T01:20:11.847Z,102407.16
2023-10-06T01:22:45.551Z,102389.88
2023-10-06T01:25:22.108Z,102344.47
2023-10-06T01:27:51.385Z,102374.13
2023-10-06T01:30:19.360Z,102386.88
2023-10-06T01:32:50.234Z,102369.56
2023-10-06T01:35:16.731Z,102385.59
2023-10-06T01:37:44.634Z,102382.84
2023-10-06T01:40:30.542Z,102391.31
2023-10-06T01:42:57.611Z,102377.44
2023-10-06T01:45:24.191Z,102356.13
2023-10-06T01:47:57.362Z,102386.94
2023-10-06T01:50:28.340Z,102380.88
2023-10-06T01:52:57.075Z,102389.84
2023-10-06T01:55:25.300Z,102336.44
2023-10-06T01:57:59.226Z,102379.81
2023-10-06T02:00:32.828Z,102396.47
2023-10-06T02:02:59.864Z,102393.75
2023-10-06T02:05:26.464Z,102359.16
2023-10-06T02:07:53.139Z,102383.25
2023-10-06T02:10:19.687Z,102366.81
2023-10-06T02:12:46.824Z,102377.84
2023-10-06T02:15:13.354Z,102369.03
2023-10-06T02:17:41.995Z,102316.88
2023-10-06T02:20:31.435Z,102364.34
2023-10-06T02:23:01.927Z,102358.09
2023-10-06T02:25:29.107Z,102361.66
2023-10-06T02:27:57.634Z,102354.19
2023-10-06T02:30:42.719Z,102351.47
2023-10-06T02:33:09.180Z,102352.31
2023-10-06T02:35:35.763Z,102346.78
2023-10-06T02:38:06.960Z,102328.28
2023-10-06T02:40:46.176Z,102336.59
2023-10-06T02:43:14.541Z,102340.66
2023-10-06T02:45:42.055Z,102339.66
2023-10-06T02:48:24.126Z,102342.53
2023-10-06T02:50:55.956Z,102337.31
2023-10-06T02:53:24.711Z,102337.59
2023-10-06T02:55:56.966Z,102322.88
2023-10-06T02:58:31.911Z,102312.25
2023-10-06T03:00:59.116Z,102324.59
2023-10-06T03:03:29.358Z,102325.44
2023-10-06T03:05:57.180Z,102318.66
2023-10-06T03:08:29.468Z,102320.19
2023-10-06T03:10:56.331Z,102315.97
2023-10-06T03:13:34.063Z,102325.75
2023-10-06T03:16:12.975Z,102325.56
2023-10-06T03:18:40.614Z,102318.28
2023-10-06T03:21:13.237Z,102309.16
2023-10-06T03:23:40.130Z,102314.22
2023-10-06T03:26:20.441Z,102315.38
2023-10-06T03:28:50.984Z,102316.94
2023-10-06T03:31:24.323Z,102312.53
2023-10-06T03:33:55.918Z,102294.59
2023-10-06T03:36:31.274Z,102296.28
2023-10-06T03:38:58.194Z,102296.72
2023-10-06T03:41:37.510Z,102302.31
2023-10-06T03:44:05.693Z,102293.66
2023-10-06T03:46:39.404Z,102261.88
2023-10-06T03:49:06.476Z,102276.75
2023-10-06T03:51:37.284Z,102299.00
2023-10-06T03:54:05.628Z,102289.84
2023-10-06T03:56:33.245Z,102240.72
2023-10-06T03:59:01.199Z,102263.44
2023-10-06T04:01:28.007Z,102260.94
2023-10-06T04:04:00.776Z,102251.47
2023-10-06T04:06:28.324Z,102269.75
2023-10-06T04:08:57.994Z,102275.31
2023-10-06T04:11:24.402Z,102270.91
2023-10-06T04:13:51.836Z,102270.53
2023-10-06T04:16:18.330Z,102271.63
2023-10-06T04:18:49.452Z,102272.97
2023-10-06T04:21:19.541Z,102271.38
2023-10-06T04:23:46.072Z,102270.88
2023-10-06T04:26:17.298Z,102254.25
2023-10-06T04:28:48.457Z,102282.44
2023-10-06T04:31:16.816Z,102270.25
2023-10-06T04:33:44.690Z,102275.94
2023-10-06T04:36:12.255Z,102260.72
2023-10-06T04:38:40.995Z,102274.81
2023-10-06T04:41:09.654Z,102254.69
2023-10-06T04:43:37.811Z,102251.16
2023-10-06T04:46:07.144Z,102248.63
2023-10-06T04:48:36.956Z,102254.03
2023-10-06T04:51:04.894Z,102268.00
2023-10-06T04:53:36.542Z,102245.66
2023-10-06T04:56:07.585Z,102238.56
2023-10-06T04:58:37.624Z,102223.50
2023-10-06T05:01:04.344Z,102243.66
2023-10-06T05:03:47.062Z,102240.94
2023-10-06T05:06:16.845Z,102246.81
2023-10-06T05:08:48.114Z,102252.41
2023-10-06T05:11:24.567Z,102251.22
2023-10-06T05:13:53.863Z,102238.25
2023-10-06T05:16:21.064Z,102244.94
2023-10-06T05:18:48.709Z,102235.84
2023-10-06T05:21:16.346Z,102245.47
2023-10-06T05:23:44.050Z,102248.81
2023-10-06T05:26:12.091Z,102249.53
2023-10-06T05:28:38.788Z,102222.28
2023-10-06T05:31:08.607Z,102203.81
2023-10-06T05:33:35.585Z,102244.09
2023-10-06T05:36:12.561Z,102248.50
2023-10-06T05:38:39.469Z,102244.09
2023-10-06T05:41:16.390Z,102236.34
2023-10-06T05:43:44.497Z,102225.00
2023-10-06T05:46:12.512Z,102232.63
2023-10-06T05:48:39.663Z,102240.41
2023-10-06T05:51:06.834Z,102239.34
2023-10-06T05:53:39.800Z,102238.16
2023-10-06T05:56:08.833Z,102246.31
2023-10-06T05:58:38.321Z,102209.28
2023-10-06T06:01:07.910Z,102242.09
2023-10-06T06:03:34.881Z,102241.25
2023-10-06T06:06:09.491Z,102240.41
2023-10-06T06:08:36.636Z,102230.59
2023-10-06T06:11:03.368Z,102236.53
2023-10-06T06:13:31.232Z,102230.94
2023-10-06T06:15:57.683Z,102234.00
2023-10-06T06:18:28.519Z,102235.00
2023-10-06T06:20:55.436Z,102241.41
2023-10-06T06:23:21.917Z,102238.75
2023-10-06T06:25:48.378Z,102239.09
2023-10-06T06:28:15.581Z,102223.88
2023-10-06T06:30:42.138Z,102219.13
2023-10-06T06:33:09.841Z,102226.94
2023-10-06T06:35:37.340Z,102226.94
2023-10-06T06:38:06.239Z,102227.63
2023-10-06T06:40:34.141Z,102233.06
2023-10-06T06:43:01.380Z,102227.69
2023-10-06T06:45:29.989Z,102202.56
2023-10-06T06:47:56.834Z,102236.81
2023-10-06T06:50:23.509Z,102198.75
2023-10-06T06:52:52.311Z,102210.78
2023-10-06T06:55:21.343Z,102216.72
2023-10-06T06:57:56.845Z,102218.88
2023-10-06T07:00:24.832Z,102200.97
2023-10-06T07:02:52.919Z,102214.69
2023-10-06T07:05:23.944Z,102213.66
2023-10-06T07:07:54.289Z,102211.16
2023-10-06T07:10:23.772Z,102183.75
2023-10-06T07:12:51.558Z,102215.91
2023-10-06T07:15:22.726Z,102218.59
2023-10-06T07:17:55.130Z,102217.94
2023-10-06T07:20:28.486Z,102235.19
2023-10-06T07:22:57.065Z,102225.41
2023-10-06T07:25:25.424Z,102217.97
2023-10-06T07:27:56.585Z,102220.34
2023-10-06T07:30:25.709Z,102230.13
2023-10-06T07:32:53.983Z,102231.63
2023-10-06T07:35:31.983Z,102224.91
2023-10-06T07:37:59.433Z,102235.88
2023-10-06T07:40:28.644Z,102227.78
2023-10-06T07:42:58.891Z,102230.13
2023-10-06T07:45:28.056Z,102230.47
2023-10-06T07:47:55.913Z,102233.19
2023-10-06T07:50:22.518Z,102246.03
2023-10-06T07:52:49.559Z,102232.50
2023-10-06T07:55:17.080Z,102222.34
2023-10-06T07:57:49.076Z,102240.63
2023-10-06T08:00:30.971Z,102212.53
2023-10-06T08:03:01.937Z,102239.06
2023-10-06T08:05:31.123Z,102236.53
2023-10-06T08:08:01.889Z,102241.31
2023-10-06T08:10:31.615Z,102236.00
2023-10-06T08:13:01.987Z,102241.50
2023-10-06T08:15:29.189Z,102229.25
2023-10-06T08:17:56.974Z,102233.22
2023-10-06T08:20:26.083Z,102235.09
2023-10-06T08:22:53.420Z,102233.59
2023-10-06T08:25:20.948Z,102225.84
2023-10-06T08:27:50.183Z,102229.72
2023-10-06T08:30:18.118Z,102221.78
2023-10-06T08:32:46.286Z,102237.16
2023-10-06T08:35:16.706Z,102197.91
2023-10-06T08:37:44.441Z,102202.47
2023-10-06T08:40:18.193Z,102229.56
2023-10-06T08:42:49.897Z,102230.47
2023-10-06T08:45:28.643Z,102203.88
2023-10-06T08:48:02.347Z,102177.97
2023-10-06T08:50:34.222Z,102215.81
2023-10-06T08:53:03.041Z,102219.41
2023-10-06T08:55:30.277Z,102224.97
2023-10-06T08:58:04.150Z,102219.53
2023-10-06T09:00:34.597Z,102168.50
2023-10-06T09:03:10.988Z,102179.19
2023-10-06T09:05:42.124Z,102205.56
2023-10-06T09:08:13.039Z,102216.50
2023-10-06T09:10:42.230Z,102204.28
2023-10-06T09:13:13.183Z,102208.81
2023-10-06T09:15:41.812Z,102213.56
2023-10-06T09:18:21.805Z,102219.75
2023-10-06T09:20:50.033Z,102214.88
2023-10-06T09:23:32.761Z,102207.28
2023-10-06T09:26:01.623Z,102226.63
2023-10-06T09:28:29.810Z,102216.31
2023-10-06T09:30:58.844Z,102206.88
2023-10-06T09:33:28.094Z,102219.06
2023-10-06T09:36:12.413Z,102226.88
2023-10-06T09:38:40.668Z,102219.00
2023-10-06T09:41:09.040Z,102212.94
2023-10-06T09:43:39.200Z,102210.13
2023-10-06T09:46:15.027Z,102173.63
2023-10-06T09:48:44.213Z,102211.47
2023-10-06T09:51:12.163Z,102211.91
2023-10-06T09:53:40.122Z,102205.63
2023-10-06T09:56:12.700Z,102198.47
2023-10-06T09:58:46.116Z,102187.50
2023-10-06T10:01:15.576Z,102186.34
2023-10-06T10:03:43.114Z,102189.59
2023-10-06T10:06:11.018Z,102208.31
2023-10-06T10:08:42.368Z,102199.06
2023-10-06T10:11:15.674Z,102180.53
2023-10-06T10:13:50.356Z,102195.91
2023-10-06T10:16:26.909Z,102180.88
2023-10-06T10:19:04.817Z,102159.91
2023-10-06T10:21:35.579Z,102141.72
2023-10-06T10:24:49.434Z,102130.72
2023-10-06T10:26:55.617Z,102154.00
2023-10-06T10:29:25.368Z,102153.19
2023-10-06T10:32:01.438Z,102155.91
2023-10-06T10:34:35.162Z,102132.84
2023-10-06T10:37:07.113Z,102156.75
2023-10-06T10:39:54.196Z,102151.75
2023-10-06T10:42:38.425Z,102154.19
2023-10-06T10:45:31.494Z,102168.94
2023-10-06T10:48:00.345Z,102157.19
2023-10-06T10:50:28.343Z,102167.72
2023-10-06T10:52:54.963Z,102167.28
2023-10-06T10:55:27.803Z,102156.34
2023-10-06T10:57:54.283Z,102162.59
2023-10-06T11:00:21.709Z,102163.47
2023-10-06T11:02:51.003Z,102167.22
2023-10-06T11:05:22.731Z,102124.41
2023-10-06T11:08:05.009Z,102162.03
2023-10-06T11:10:32.647Z,102147.09
2023-10-06T11:13:21.102Z,102127.78
2023-10-06T11:15:50.253Z,102122.91
2023-10-06T11:18:19.364Z,102120.63
2023-10-06T11:20:47.137Z,102114.50
2023-10-06T11:23:13.649Z,102098.53
2023-10-06T11:25:49.618Z,102086.09
2023-10-06T11:28:16.614Z,102109.72
2023-10-06T11:30:43.928Z,102119.19
2023-10-06T11:33:12.868Z,102104.88
2023-10-06T11:35:41.739Z,102104.56
2023-10-06T11:38:14.632Z,102095.53
2023-10-06T11:40:42.069Z,102096.53
2023-10-06T11:43:10.671Z,102080.44
2023-10-06T11:45:38.057Z,102103.41
2023-10-06T11:48:04.815Z,102105.06
2023-10-06T11:50:34.533Z,102094.28
2023-10-06T11:53:01.030Z,102091.22
2023-10-06T11:55:37.153Z,102102.88
2023-10-06T11:58:06.337Z,102104.56
2023-10-06T12:00:38.324Z,102111.78
2023-10-06T12:03:07.597Z,102123.97
2023-10-06T12:05:34.750Z,102106.13
2023-10-06T12:08:05.669Z,102109.25
2023-10-06T12:10:33.890Z,102101.38
2023-10-06T12:13:01.300Z,102104.78
2023-10-06T12:15:30.842Z,102096.38
2023-10-06T12:17:57.905Z,102098.09
2023-10-06T12:20:25.589Z,102085.06
2023-10-06T12:22:53.015Z,102095.38
2023-10-06T12:25:24.162Z,102094.75
2023-10-06T12:27:51.645Z,102093.66
2023-10-06T12:30:19.577Z,102092.75
2023-10-06T12:32:48.888Z,102085.94
2023-10-06T12:35:22.355Z,102078.22
2023-10-06T12:37:50.011Z,102079.09
2023-10-06T12:40:17.751Z,102077.72
2023-10-06T12:42:45.039Z,102069.50
2023-10-06T12:45:14.925Z,102059.44
2023-10-06T12:47:41.784Z,102039.66
2023-10-06T12:50:09.659Z,102045.28
2023-10-06T12:52:38.064Z,102050.22
2023-10-06T12:55:14.243Z,102033.56
2023-10-06T12:57:41.881Z,102063.16
2023-10-06T13:00:10.216Z,102049.34
2023-10-06T13:02:38.068Z,102067.38
2023-10-06T13:05:10.322Z,102040.53
2023-10-06T13:07:37.246Z,102050.78
2023-10-06T13:10:07.859Z,102050.81
2023-10-06T13:12:39.737Z,102076.91
2023-10-06T13:15:19.633Z,102064.75
2023-10-06T13:17:47.328Z,102075.66
2023-10-06T13:20:14.881Z,102074.63
2023-10-06T13:22:42.740Z,102078.41
2023-10-06T13:25:11.727Z,102065.59
2023-10-06T13:27:40.609Z,102062.00
2023-10-06T13:30:14.172Z,102073.59
2023-10-06T13:32:48.574Z,102056.75
2023-10-06T13:35:20.262Z,102041.63
2023-10-06T13:37:49.789Z,102053.38
2023-10-06T13:40:18.360Z,102066.19
2023-10-06T13:42:48.004Z,102056.97
2023-10-06T13:45:19.407Z,102054.66
2023-10-06T13:47:48.486Z,102055.06
2023-10-06T13:50:19.470Z,102054.22
2023-10-06T13:52:48.342Z,102051.28
2023-10-06T13:55:15.138Z,102045.38
2023-10-06T13:57:42.841Z,102040.56
2023-10-06T14:00:15.114Z,102042.69
2023-10-06T14:02:42.789Z,102042.69
2023-10-06T14:05:10.625Z,102037.22
2023-10-06T14:07:38.533Z,102037.44
2023-10-06T14:10:13.659Z,102033.22
2023-10-06T14:12:43.944Z,102035.34
2023-10-06T14:15:31.367Z,102035.34
2023-10-06T14:17:59.732Z,102028.56
2023-10-06T14:20:30.838Z,102027.91
2023-10-06T14:22:57.827Z,102044.50
2023-10-06T14:25:27.922Z,102033.16
2023-10-06T14:27:55.976Z,102025.41
2023-10-06T14:30:26.519Z,102025.41
2023-10-06T14:33:09.039Z,102026.44
2023-10-06T14:35:58.711Z,102042.16
2023-10-06T14:38:44.316Z,102035.63
2023-10-06T14:41:30.876Z,102028.91
2023-10-06T14:44:20.852Z,102037.28
2023-10-06T14:46:51.162Z,102034.53
2023-10-06T14:49:29.186Z,102029.09
2023-10-06T14:51:57.461Z,102036.00
2023-10-06T14:54:32.040Z,102038.06
2023-10-06T14:57:00.199Z,102034.69
2023-10-06T14:59:32.415Z,102023.00
2023-10-06T15:02:04.714Z,102024.19
2023-10-06T15:04:31.395Z,102031.44
2023-10-06T15:06:57.948Z,102020.22
2023-10-06T15:09:24.387Z,102026.25
2023-10-06T15:11:53.686Z,102017.44
2023-10-06T15:14:26.218Z,102011.34
2023-10-06T15:16:54.136Z,102007.31
2023-10-06T15:19:21.321Z,102022.81
2023-10-06T15:21:47.845Z,102014.84
2023-10-06T15:24:15.640Z,102009.38
2023-10-06T15:26:49.446Z,101990.25
2023-10-06T15:29:20.872Z,102011.44
2023-10-06T15:31:51.330Z,102013.81
2023-10-06T15:34:18.850Z,102010.84
2023-10-06T15:36:45.731Z,102002.28
2023-10-06T15:39:18.946Z,102008.97
2023-10-06T15:41:47.066Z,102011.88
2023-10-06T15:44:14.735Z,102011.84
2023-10-06T15:46:42.125Z,102012.72
2023-10-06T15:49:13.647Z,102012.94
2023-10-06T15:51:43.355Z,102017.75
2023-10-06T15:54:10.693Z,102021.91
2023-10-06T15:56:39.819Z,102024.66
2023-10-06T15:59:15.428Z,102003.84
2023-10-06T16:01:44.305Z,102029.22
2023-10-06T16:04:13.504Z,102030.13
2023-10-06T16:06:42.710Z,102036.59
2023-10-06T16:09:10.663Z,102030.31
2023-10-06T16:11:40.830Z,102020.72
2023-10-06T16:14:07.459Z,102017.25
2023-10-06T16:16:36.633Z,102017.72
2023-10-06T16:19:07.043Z,102016.88
2023-10-06T16:21:34.169Z,102024.81
2023-10-06T16:24:02.649Z,101987.41
2023-10-06T16:26:31.301Z,102018.34
2023-10-06T16:28:59.496Z,102019.78
2023-10-06T16:31:27.025Z,102016.78
2023-10-06T16:33:54.988Z,102015.75
2023-10-06T16:36:22.781Z,102030.66
2023-10-06T16:38:52.330Z,102019.75
2023-10-06T16:41:22.292Z,102017.69
2023-10-06T16:43:56.837Z,102024.34
2023-10-06T16:46:23.894Z,102020.13
2023-10-06T16:48:50.444Z,102018.81
2023-10-06T16:51:19.011Z,102023.00
2023-10-06T16:53:48.962Z,102017.97
2023-10-06T16:56:15.684Z,102020.09
2023-10-06T16:58:42.513Z,102009.38
2023-10-06T17:01:09.499Z,102014.16
2023-10-06T17:03:36.659Z,102010.38
2023-10-06T17:06:05.177Z,102027.56
2023-10-06T17:08:32.009Z,102035.72
2023-10-06T17:11:15.826Z,102023.28
2023-10-06T17:13:43.210Z,101993.25
2023-10-06T17:16:14.224Z,102015.88
2023-10-06T17:18:42.681Z,102021.41
2023-10-06T17:21:12.630Z,102022.47
2023-10-06T17:23:39.127Z,102000.59
2023-10-06T17:26:06.575Z,102030.81
2023-10-06T17:28:34.679Z,101999.00
2023-10-06T17:31:02.256Z,102000.63
2023-10-06T17:33:30.001Z,101995.44
2023-10-06T17:35:57.850Z,102011.00
2023-10-06T17:38:24.515Z,102029.09
2023-10-06T17:40:51.069Z,102032.00
2023-10-06T17:43:18.322Z,102041.47
2023-10-06T17:45:45.637Z,102020.59
2023-10-06T17:48:15.122Z,102034.38
2023-10-06T17:50:47.059Z,102014.00
2023-10-06T17:53:13.462Z,102031.66
2023-10-06T17:55:39.912Z,102025.38
2023-10-06T17:58:06.360Z,102026.03
2023-10-06T18:00:32.753Z,102031.84
2023-10-06T18:02:59.668Z,102032.00
2023-10-06T18:05:26.931Z,102034.53
2023-10-06T18:07:55.621Z,102034.72
2023-10-06T18:10:24.162Z,102038.06
2023-10-06T18:12:50.637Z,102042.25
2023-10-06T18:15:17.068Z,102027.09
2023-10-06T18:17:43.571Z,102035.91
2023-10-06T18:20:10.966Z,102038.63
2023-10-06T18:22:38.210Z,102035.44
2023-10-06T18:25:07.129Z,102047.97
2023-10-06T18:27:34.076Z,102024.94
2023-10-06T18:30:00.624Z,102039.81
2023-10-06T18:32:27.151Z,102034.53
2023-10-06T18:34:54.077Z,102032.25
2023-10-06T18:37:20.592Z,102020.75
2023-10-06T18:39:47.665Z,102028.25
2023-10-06T18:42:14.551Z,102022.16
2023-10-06T18:44:41.068Z,102030.06
2023-10-06T18:47:07.602Z,102015.84
2023-10-06T18:49:34.152Z,102018.03
2023-10-06T18:52:00.894Z,102016.28
2023-10-06T18:54:27.350Z,102003.59
2023-10-06T18:56:53.983Z,102011.38
2023-10-06T18:59:20.412Z,102010.91
2023-10-06T19:01:47.041Z,102019.47
2023-10-06T19:04:14.587Z,102007.91
2023-10-06T19:06:42.228Z,102011.88
2023-10-06T19:09:11.839Z,101972.78
2023-10-06T19:11:38.849Z,101982.13
2023-10-06T19:14:06.071Z,101990.94
2023-10-06T19:16:33.077Z,101968.75
2023-10-06T19:18:59.774Z,101982.28
2023-10-06T19:21:26.312Z,102008.69
2023-10-06T19:23:52.927Z,102018.22
2023-10-06T19:26:23.249Z,102018.13
2023-10-06T19:28:49.790Z,102011.00
2023-10-06T19:31:17.294Z,102018.97
2023-10-06T19:33:48.479Z,102014.56
2023-10-06T19:36:15.408Z,102012.78
2023-10-06T19:38:42.698Z,102010.47
2023-10-06T19:41:15.321Z,102001.31
2023-10-06T19:43:45.442Z,102004.66
2023-10-06T19:46:12.494Z,102002.13
2023-10-06T19:48:51.597Z,101997.72
2023-10-06T19:51:18.711Z,102012.69
2023-10-06T19:53:46.068Z,102012.03
2023-10-06T19:56:13.161Z,102024.84
2023-10-06T19:58:42.634Z,102021.50
2023-10-06T20:01:12.641Z,102011.94
2023-10-06T20:03:39.359Z,102015.22
2023-10-06T20:06:06.093Z,102018.97
2023-10-06T20:08:33.502Z,101981.13
2023-10-06T20:11:01.618Z,102015.22
2023-10-06T20:13:30.030Z,102000.53
2023-10-06T20:15:57.527Z,102006.59
2023-10-06T20:18:24.181Z,102005.56
2023-10-06T20:20:53.259Z,102001.16
2023-10-06T20:23:20.681Z,102012.50
2023-10-06T20:25:47.340Z,102009.31
2023-10-06T20:28:15.439Z,102013.47
2023-10-06T20:30:42.237Z,102012.25
2023-10-06T20:33:08.795Z,102008.75
2023-10-06T20:35:35.778Z,102022.28
2023-10-06T20:38:02.796Z,102009.31
2023-10-06T20:40:30.070Z,102016.69
2023-10-06T20:42:58.700Z,102025.91
2023-10-06T20:45:29.553Z,102021.03
2023-10-06T20:47:56.687Z,102021.34
2023-10-06T20:50:24.416Z,102000.34
2023-10-06T20:52:52.831Z,102008.59
2023-10-06T20:55:20.778Z,102005.16
2023-10-06T20:57:49.330Z,102007.03
2023-10-06T21:00:17.871Z,102009.75
2023-10-06T21:02:44.831Z,102004.41
2023-10-06T21:05:12.786Z,102005.16
2023-10-06T21:07:40.346Z,102006.47
2023-10-06T21:10:08.641Z,101994.75
2023-10-06T21:12:35.916Z,101999.34
2023-10-06T21:15:03.669Z,101991.38
2023-10-06T21:17:31.036Z,101992.34
2023-10-06T21:19:57.774Z,101999.25
2023-10-06T21:22:24.532Z,101985.97
2023-10-06T21:24:51.087Z,101971.81
2023-10-06T21:27:17.565Z,101985.41
2023-10-06T21:29:44.066Z,101997.47
2023-10-06T21:32:10.513Z,101984.09
2023-10-06T21:34:36.967Z,101982.78
2023-10-06T21:37:03.544Z,101974.34
2023-10-06T21:39:30.648Z,101975.28
2023-10-06T21:41:57.243Z,101967.91
2023-10-06T21:44:23.733Z,101982.78
2023-10-06T21:46:50.331Z,101986.16
2023-10-06T21:49:17.124Z,101966.13
2023-10-06T21:51:44.343Z,101964.50
2023-10-06T21:54:11.937Z,101910.16
2023-10-06T21:56:38.639Z,101955.06
2023-10-06T21:59:05.206Z,101963.59
2023-10-06T22:01:31.813Z,101950.47
2023-10-06T22:03:58.350Z,101964.44
2023-10-06T22:06:24.921Z,101956.69
2023-10-06T22:08:52.395Z,101958.16
2023-10-06T22:11:19.047Z,101957.03
2023-10-06T22:13:46.980Z,101951.38
2023-10-06T22:16:13.904Z,101937.78
2023-10-06T22:18:41.438Z,101943.31
2023-10-06T22:21:15.583Z,101942.47
2023-10-06T22:23:43.195Z,101937.69
2023-10-06T22:26:09.866Z,101948.63
2023-10-06T22:28:36.783Z,101925.28
2023-10-06T22:31:05.380Z,101933.28
2023-10-06T22:33:32.779Z,101946.75
2023-10-06T22:35:59.744Z,101937.59
2023-10-06T22:38:26.492Z,101943.88
2023-10-06T22:40:53.511Z,101939.28
2023-10-06T22:43:20.292Z,101938.63
2023-10-06T22:45:46.894Z,101935.50
2023-10-06T22:48:13.469Z,101946.38
2023-10-06T22:50:41.028Z,101946.84
2023-10-06T22:53:08.129Z,101940.94
2023-10-06T22:55:36.920Z,101927.34
2023-10-06T22:58:03.818Z,101930.53
2023-10-06T23:00:30.767Z,101926.13
2023-10-06T23:02:57.920Z,101925.53
2023-10-06T23:05:25.562Z,101910.47
2023-10-06T23:07:52.806Z,101914.22
2023-10-06T23:10:23.886Z,101887.50
2023-10-06T23:12:51.875Z,101912.34
2023-10-06T23:15:21.898Z,101925.09
2023-10-06T23:17:50.353Z,101887.09
2023-10-06T23:20:23.177Z,101922.38
2023-10-06T23:22:54.671Z,101922.50
2023-10-06T23:25:23.837Z,101921.78
2023-10-06T23:27:54.070Z,101926.22
2023-10-06T23:30:21.199Z,101923.97
2023-10-06T23:32:50.391Z,101918.53
2023-10-06T23:35:20.731Z,101921.63
2023-10-06T23:37:47.942Z,101910.78
2023-10-06T23:40:23.867Z,101869.50
2023-10-06T23:42:56.333Z,101916.06
2023-10-06T23:45:30.539Z,101911.94
2023-10-06T23:47:58.680Z,101906.81
2023-10-06T23:50:29.797Z,101900.84
2023-10-06T23:53:00.820Z,101911.03
2023-10-06T23:55:28.814Z,101895.09
2023-10-06T23:57:55.589Z,101909.59
